Time;durP1;ratioP1;P1;durP2;ratioP2;P2;SDS_P1;SDS_P2;PMS_P1;PMS_P2;Temp;Humidity;BMP_temperature;BMP_pressure;BME280_temperature;BME280_humidity;BME280_pressure;Samples;Min_cycle;Max_cycle;Signal;HPM_P1;HPM_P2
2023/08/16 00:06:32;;;;;;;12.55;5.00;;;;;;;16.71;70.23;100611.97;4998386;28;127036;-71
2023/08/16 00:08:58;;;;;;;13.07;5.47;;;;;;;16.79;70.29;100613.53;5006793;28;20049;-71
2023/08/16 00:11:27;;;;;;;10.80;5.18;;;;;;;16.76;70.36;100601.34;4988994;28;20054;-71
2023/08/16 00:13:53;;;;;;;14.48;6.03;;;;;;;16.91;70.55;100628.16;4983149;28;20049;-68
2023/08/16 00:16:19;;;;;;;10.90;5.20;;;;;;;16.96;70.40;100634.22;4991495;28;20526;-69
2023/08/16 00:18:45;;;;;;;13.80;6.22;;;;;;;16.97;70.59;100643.84;5005788;28;20066;-69
2023/08/16 00:21:11;;;;;;;15.73;5.55;;;;;;;16.94;70.19;100634.25;4989996;28;20056;-69
2023/08/16 00:23:37;;;;;;;14.63;5.95;;;;;;;16.98;70.48;100637.69;4990374;28;20531;-70
2023/08/16 00:26:03;;;;;;;8.38;5.07;;;;;;;17.02;70.41;100642.84;4990254;28;20492;-70
2023/08/16 00:28:29;;;;;;;11.43;5.72;;;;;;;16.95;70.30;100628.13;4979828;28;20054;-70
2023/08/16 00:30:56;;;;;;;8.85;5.28;;;;;;;17.01;70.42;100630.59;4996185;28;20125;-70
2023/08/16 00:33:22;;;;;;;12.80;5.45;;;;;;;16.92;70.40;100614.13;5011281;28;20042;-69
2023/08/16 00:35:51;;;;;;;11.45;5.47;;;;;;;17.04;70.36;100634.94;4993801;28;20034;-69
2023/08/16 00:38:17;;;;;;;10.38;5.30;;;;;;;17.02;70.72;100629.69;5010644;28;20037;-69
2023/08/16 00:40:50;;;;;;;12.32;4.93;;;;;;;17.11;70.79;100640.91;4995218;28;20248;-70
2023/08/16 00:43:17;;;;;;;17.58;5.30;;;;;;;17.12;70.45;100632.97;4994720;28;20050;-70
2023/08/16 00:45:45;;;;;;;11.88;5.78;;;;;;;16.98;70.64;100624.53;4986728;28;20505;-73
2023/08/16 00:48:13;;;;;;;14.32;5.38;;;;;;;16.96;70.50;100615.81;4977445;28;20305;-71
2023/08/16 00:50:39;;;;;;;11.93;6.05;;;;;;;16.96;70.70;100615.81;4992381;28;20531;-73
2023/08/16 00:53:06;;;;;;;10.10;5.63;;;;;;;17.14;70.53;100648.72;4993402;28;20038;-72
2023/08/16 00:55:33;;;;;;;13.65;5.68;;;;;;;17.05;70.39;100617.38;4995141;28;20027;-71
2023/08/16 00:58:01;;;;;;;15.73;5.20;;;;;;;17.14;70.44;100635.59;4990128;28;20042;-72
2023/08/16 01:00:28;;;;;;;10.00;5.40;;;;;;;17.17;70.90;100641.63;4975546;28;20045;-72
2023/08/16 01:02:54;;;;;;;11.50;5.65;;;;;;;17.22;70.96;100646.78;4974364;28;20046;-70
2023/08/16 01:05:21;;;;;;;8.13;5.65;;;;;;;17.11;70.87;100625.13;4979595;28;20049;-71
2023/08/16 01:07:47;;;;;;;8.52;5.50;;;;;;;17.26;70.62;100644.97;4991483;28;20038;-71
2023/08/16 01:10:12;;;;;;;8.85;4.82;;;;;;;17.21;70.84;100636.31;4975261;28;20535;-69
2023/08/16 01:12:49;;;;;;;12.25;4.85;;;;;;;17.24;70.46;100657.28;4990966;28;20448;-71
2023/08/16 01:15:22;;;;;;;7.50;5.00;;;;;;;17.13;70.76;100642.59;4990438;28;20034;-70
2023/08/16 01:17:50;;;;;;;11.10;4.93;;;;;;;17.00;70.58;100628.84;4967317;28;20030;-71
2023/08/16 01:20:18;;;;;;;6.78;5.13;;;;;;;17.04;70.56;100648.06;4965469;28;20469;-70
2023/08/16 01:22:54;;;;;;;10.35;5.30;;;;;;;17.08;70.84;100660.25;4981988;28;20049;-70
2023/08/16 01:25:48;;;;;;;11.38;5.25;;;;;;;17.09;71.08;100656.75;4964822;28;20045;-71
2023/08/16 01:28:14;;;;;;;11.77;5.38;;;;;;;16.92;70.94;100633.41;4963456;28;20916;-71
2023/08/16 01:30:42;;;;;;;11.75;6.00;;;;;;;17.04;71.14;100658.59;4978773;28;20555;-70
2023/08/16 01:33:09;;;;;;;15.10;5.63;;;;;;;16.98;71.08;100661.34;4978291;28;20042;-71
2023/08/16 01:35:35;;;;;;;13.65;6.22;;;;;;;16.82;71.14;100638.00;4978554;28;20046;-71
2023/08/16 01:38:06;;;;;;;12.73;5.85;;;;;;;16.96;71.24;100658.78;4945420;28;20042;-70
2023/08/16 01:40:39;;;;;;;9.40;5.57;;;;;;;17.02;71.18;100665.66;4995159;28;20061;-70
2023/08/16 01:43:09;;;;;;;13.15;5.32;;;;;;;17.00;71.06;100675.31;4965125;28;20113;-69
2023/08/16 01:45:35;;;;;;;12.50;5.55;;;;;;;16.96;71.36;100668.41;4963052;28;20081;-71
2023/08/16 01:48:03;;;;;;;11.43;6.00;;;;;;;16.99;71.07;100670.97;4979897;28;20086;-70
2023/08/16 01:50:29;;;;;;;9.95;5.68;;;;;;;16.96;71.10;100673.66;4978029;28;20480;-71
2023/08/16 01:52:55;;;;;;;12.38;5.80;;;;;;;16.93;71.30;100674.56;4978680;28;20460;-71
2023/08/16 01:55:22;;;;;;;16.30;4.80;;;;;;;16.96;71.35;100684.16;4960337;28;20042;-72
2023/08/16 01:57:48;;;;;;;7.53;4.82;;;;;;;16.86;71.43;100668.59;4964243;28;20057;-73
2023/08/16 02:00:15;;;;;;;11.95;5.25;;;;;;;16.88;71.31;100672.94;4930461;28;20046;-71
2023/08/16 02:02:42;;;;;;;12.50;5.20;;;;;;;16.89;71.46;100670.28;4956755;28;20153;-70
2023/08/16 02:05:08;;;;;;;10.18;5.20;;;;;;;16.86;71.34;100673.84;4977352;28;20524;-74
2023/08/16 02:07:37;;;;;;;16.30;6.18;;;;;;;16.72;71.22;100649.59;4977859;28;20046;-70
2023/08/16 02:10:03;;;;;;;10.20;5.63;;;;;;;16.81;71.26;100673.06;4978694;28;20041;-72
2023/08/16 02:12:29;;;;;;;14.63;5.80;;;;;;;16.90;71.07;100695.66;4976622;28;20045;-70
2023/08/16 02:14:55;;;;;;;16.00;5.82;;;;;;;16.71;71.06;100672.38;4995399;28;20038;-70
2023/08/16 02:17:21;;;;;;;14.98;5.22;;;;;;;16.70;71.29;100664.53;4963862;28;20096;-70
2023/08/16 02:19:47;;;;;;;13.93;5.25;;;;;;;16.89;71.64;100698.31;4978995;28;20089;-70
2023/08/16 02:22:13;;;;;;;16.02;5.47;;;;;;;16.83;71.08;100684.41;4978566;28;20051;-72
2023/08/16 02:24:39;;;;;;;16.95;6.40;;;;;;;16.83;71.61;100681.78;4978813;28;20042;-71
2023/08/16 02:27:05;;;;;;;12.68;5.90;;;;;;;16.86;71.49;100684.34;4977520;28;20615;-71
2023/08/16 02:29:31;;;;;;;14.40;5.70;;;;;;;17.00;71.48;100699.00;4964473;28;20097;-71
2023/08/16 02:31:57;;;;;;;11.85;5.68;;;;;;;16.76;71.27;100656.53;4975516;28;20039;-71
2023/08/16 02:34:23;;;;;;;17.42;5.30;;;;;;;17.04;71.69;100695.41;4960451;28;20038;-71
2023/08/16 02:36:49;;;;;;;8.77;4.80;;;;;;;16.99;71.52;100682.34;4975371;28;20097;-71
2023/08/16 02:39:15;;;;;;;14.18;5.85;;;;;;;17.17;71.39;100696.84;4977715;28;20038;-72
2023/08/16 02:41:41;;;;;;;12.82;4.85;;;;;;;17.24;71.27;100704.63;4947961;28;20058;-71
2023/08/16 02:44:07;;;;;;;13.90;5.55;;;;;;;17.27;71.04;100710.66;4991823;28;20123;-70
2023/08/16 02:46:33;;;;;;;10.68;5.45;;;;;;;17.21;71.28;100688.91;4975216;28;20047;-71
2023/08/16 02:48:59;;;;;;;12.30;5.10;;;;;;;17.20;71.14;100677.53;4974227;28;20042;-70
2023/08/16 02:51:26;;;;;;;10.52;5.25;;;;;;;17.31;71.17;100686.03;4991434;28;20045;-69
2023/08/16 02:53:52;;;;;;;15.40;5.50;;;;;;;17.23;71.20;100666.06;4960331;28;20042;-70
2023/08/16 02:56:18;;;;;;;6.55;4.75;;;;;;;17.53;71.17;100708.34;4977678;28;20121;-70
2023/08/16 02:58:44;;;;;;;10.05;4.63;;;;;;;17.61;70.96;100709.03;4976974;28;21500;-71
2023/08/16 03:01:10;;;;;;;11.57;5.20;;;;;;;17.54;70.83;100695.16;4975107;28;20042;-71
2023/08/16 03:03:36;;;;;;;9.25;4.60;;;;;;;17.64;71.02;100689.69;4975982;28;20084;-70
2023/08/16 03:06:03;;;;;;;9.10;4.72;;;;;;;17.77;70.96;100707.75;4974861;28;20055;-69
2023/08/16 03:08:30;;;;;;;8.15;4.63;;;;;;;17.85;70.80;100711.97;4989967;28;20049;-71
2023/08/16 03:10:56;;;;;;;13.50;5.25;;;;;;;17.88;70.67;100707.47;4960480;28;20030;-69
2023/08/16 03:13:22;;;;;;;7.95;4.75;;;;;;;17.94;70.42;100701.22;4974933;28;20062;-71
2023/08/16 03:15:48;;;;;;;10.32;5.03;;;;;;;18.12;70.45;100714.84;4959190;28;20062;-70
2023/08/16 03:18:18;;;;;;;11.15;5.68;;;;;;;18.20;70.23;100719.00;4992286;28;20034;-72
2023/08/16 03:20:44;;;;;;;9.27;5.32;;;;;;;18.26;70.27;100715.34;4975260;28;20038;-72
2023/08/16 03:23:12;;;;;;;12.85;5.40;;;;;;;18.33;70.02;100718.66;4975548;28;20068;-75
2023/08/16 03:25:38;;;;;;;10.50;5.22;;;;;;;18.47;70.13;100719.19;4992783;28;20109;-72
2023/08/16 03:28:05;;;;;;;9.13;6.70;;;;;;;18.56;69.98;100720.69;4977111;28;20053;-73
2023/08/16 03:30:31;;;;;;;12.35;6.50;;;;;;;18.65;69.76;100715.16;4978535;28;20413;-73
2023/08/16 03:32:57;;;;;;;8.88;5.43;;;;;;;18.70;69.62;100706.25;4977145;28;20046;-74
2023/08/16 03:35:23;;;;;;;10.68;5.75;;;;;;;18.87;69.52;100730.38;4957800;28;20141;-72
2023/08/16 03:37:49;;;;;;;7.03;4.68;;;;;;;18.82;69.22;100700.66;4943615;28;20045;-76
2023/08/16 03:40:15;;;;;;;11.57;5.82;;;;;;;19.09;69.24;100735.94;4975014;28;20049;-71
2023/08/16 03:42:43;;;;;;;10.23;5.38;;;;;;;19.23;69.05;100732.88;4980652;28;20047;-71
2023/08/16 03:45:10;;;;;;;9.25;5.15;;;;;;;19.26;68.74;100716.97;4976794;28;20041;-70
2023/08/16 03:47:35;;;;;;;10.18;5.30;;;;;;;19.34;68.52;100713.19;4960589;28;20120;-69
2023/08/16 03:50:04;;;;;;;8.27;4.55;;;;;;;19.29;68.39;100684.34;4959400;28;20516;-71
2023/08/16 03:52:30;;;;;;;8.40;4.47;;;;;;;19.60;68.14;100714.16;4936421;28;20457;-72
2023/08/16 03:54:56;;;;;;;6.80;4.80;;;;;;;19.87;67.93;100738.81;4961366;28;20049;-70
2023/08/16 03:57:23;;;;;;;12.18;5.40;;;;;;;19.86;67.28;100714.19;4976424;28;20062;-73
2023/08/16 03:59:52;;;;;;;9.82;4.25;;;;;;;20.15;67.14;100740.56;4975662;28;20042;-71
2023/08/16 04:02:21;;;;;;;9.77;5.05;;;;;;;20.17;66.63;100717.59;4974900;28;20049;-71
2023/08/16 04:04:52;;;;;;;7.93;4.55;;;;;;;20.44;66.25;100728.97;4989420;28;20105;-70
2023/08/16 04:07:19;;;;;;;4.68;4.10;;;;;;;20.64;66.28;100740.63;4978101;28;20136;-72
2023/08/16 04:09:45;;;;;;;11.50;5.25;;;;;;;20.76;65.59;100734.94;4973775;28;20764;-71
2023/08/16 04:12:12;;;;;;;7.95;4.72;;;;;;;20.99;65.73;100734.97;4960329;28;20042;-70
2023/08/16 04:14:38;;;;;;;8.40;4.70;;;;;;;21.07;65.32;100732.91;4978091;28;20049;-70
2023/08/16 04:17:03;;;;;;;7.60;5.20;;;;;;;21.22;64.48;100731.47;4957839;28;20166;-69
2023/08/16 04:19:32;;;;;;;6.97;4.63;;;;;;;21.44;64.26;100751.81;4972650;28;20531;-70
2023/08/16 04:21:58;;;;;;;7.78;4.72;;;;;;;21.53;64.23;100724.97;4974878;28;20035;-69
2023/08/16 04:24:24;;;;;;;8.02;4.82;;;;;;;21.70;63.48;100720.81;4963754;28;20045;-69
2023/08/16 04:26:50;;;;;;;6.63;4.38;;;;;;;21.99;63.29;100737.28;4991168;28;20071;-69
2023/08/16 04:29:15;;;;;;;6.28;4.28;;;;;;;21.97;62.82;100702.91;4956143;28;20539;-69
2023/08/16 04:31:41;;;;;;;12.73;4.47;;;;;;;22.33;62.71;100738.50;4947166;28;20043;-68
2023/08/16 04:34:07;;;;;;;7.93;4.10;;;;;;;22.39;62.03;100723.19;4975026;28;20053;-68
2023/08/16 04:36:33;;;;;;;10.40;4.32;;;;;;;22.67;61.71;100735.25;4947376;28;20038;-70
2023/08/16 04:38:59;;;;;;;7.07;4.30;;;;;;;22.84;61.15;100730.97;4949785;28;20039;-71
2023/08/16 04:41:26;;;;;;;7.63;4.70;;;;;;;22.90;60.03;100714.78;4974279;28;20129;-72
2023/08/16 04:43:52;;;;;;;9.05;4.65;;;;;;;23.09;59.76;100732.50;4974873;28;20137;-71
2023/08/16 04:46:18;;;;;;;7.53;4.25;;;;;;;23.13;59.74;100726.13;4964035;28;20051;-71
2023/08/16 04:48:45;;;;;;;6.35;4.28;;;;;;;23.39;59.05;100734.69;4972123;28;20031;-72
2023/08/16 04:51:11;;;;;;;7.60;4.40;;;;;;;23.42;58.82;100723.91;4991514;28;20041;-70
2023/08/16 04:53:37;;;;;;;9.25;4.45;;;;;;;23.61;58.34;100714.09;4968201;28;20046;-76
2023/08/16 04:56:03;;;;;;;7.18;4.18;;;;;;;23.93;57.74;100726.75;4983957;28;20057;-71
2023/08/16 04:58:30;;;;;;;7.47;4.25;;;;;;;24.06;57.54;100709.25;4964530;28;20050;-69
2023/08/16 05:00:56;;;;;;;7.53;4.43;;;;;;;24.28;57.13;100721.44;4983268;28;20042;-70
2023/08/16 05:03:22;;;;;;;9.32;4.57;;;;;;;24.10;56.29;100670.06;4873068;28;128642;-69
2023/08/16 05:05:56;;;;;;;7.32;4.03;;;;;;;24.49;55.69;100710.63;4965863;28;20439;-70
2023/08/16 05:08:22;;;;;;;7.13;4.30;;;;;;;24.71;55.62;100722.81;4978272;28;20042;-69
2023/08/16 05:10:48;;;;;;;13.25;4.28;;;;;;;24.43;55.02;100657.75;4980196;28;20050;-68
2023/08/16 05:13:15;;;;;;;13.50;4.78;;;;;;;25.05;54.82;100731.59;4963599;28;20520;-69
2023/08/16 05:15:41;;;;;;;6.60;4.30;;;;;;;25.10;54.09;100724.22;4995262;28;20070;-69
2023/08/16 05:18:07;;;;;;;6.80;4.43;;;;;;;25.04;53.63;100682.84;4980135;28;20080;-72
2023/08/16 05:20:35;;;;;;;9.23;4.47;;;;;;;25.48;53.48;100737.25;4987579;28;20044;-77
2023/08/16 05:23:01;;;;;;;6.82;3.60;;;;;;;25.56;53.14;100731.47;4973381;28;20540;-76
2023/08/16 05:25:27;;;;;;;11.82;4.45;;;;;;;25.95;52.77;100723.91;4983339;28;20047;-79
2023/08/16 05:27:53;;;;;;;5.10;3.78;;;;;;;26.44;52.08;100715.66;4986355;28;20050;-80
2023/08/16 05:30:18;;;;;;;8.35;3.67;;;;;;;28.03;52.13;100724.28;4982744;28;20038;-81
2023/08/16 05:32:44;;;;;;;6.63;3.63;;;;;;;29.93;49.38;100687.59;4983870;28;20130;-77
2023/08/16 05:35:10;;;;;;;6.22;3.50;;;;;;;32.09;45.52;100704.28;4995072;28;20077;-78
2023/08/16 05:37:36;;;;;;;9.50;3.55;;;;;;;34.07;41.65;100711.91;4984461;28;20076;-80
2023/08/16 05:40:05;;;;;;;11.13;4.18;;;;;;;35.50;38.37;100704.44;4971843;28;20500;-77
2023/08/16 05:42:31;;;;;;;5.50;3.65;;;;;;;36.97;35.38;100711.97;4984947;28;20053;-78
2023/08/16 05:44:57;;;;;;;9.70;3.58;;;;;;;38.00;33.54;100683.59;4965643;28;20117;-77
2023/08/16 05:47:23;;;;;;;5.43;3.10;;;;;;;39.24;31.58;100710.28;4985330;28;20053;-83
2023/08/16 05:49:49;;;;;;;7.63;3.83;;;;;;;40.13;29.70;100697.97;4982894;28;20037;-80
2023/08/16 05:52:15;;;;;;;9.05;3.72;;;;;;;41.27;28.38;100720.44;4982747;28;20052;-81
2023/08/16 05:54:40;;;;;;;4.93;3.20;;;;;;;41.85;27.13;100700.38;4979839;28;20137;-78
2023/08/16 05:57:06;;;;;;;7.90;3.40;;;;;;;42.55;25.82;100685.91;4964178;28;20078;-78
2023/08/16 05:59:32;;;;;;;9.50;4.15;;;;;;;43.32;24.51;100688.47;4995957;28;20053;-78
2023/08/16 06:01:58;;;;;;;4.55;3.30;;;;;;;44.14;23.29;100682.72;4996112;28;20046;-79
2023/08/16 06:04:25;;;;;;;6.03;3.42;;;;;;;44.89;22.40;100697.88;4981136;28;20106;-83
2023/08/16 06:06:51;;;;;;;5.70;3.13;;;;;;;45.57;21.57;100706.47;4982702;28;20049;-83
2023/08/16 06:09:17;;;;;;;4.15;3.17;;;;;;;46.30;20.41;100712.31;4995663;28;20038;-77
2023/08/16 06:11:43;;;;;;;3.88;3.03;;;;;;;46.68;19.28;100686.47;4979518;28;20038;-77
2023/08/16 06:14:09;;;;;;;5.35;3.25;;;;;;;47.31;18.84;100703.59;4976288;28;20069;-80
2023/08/16 06:16:35;;;;;;;3.88;3.08;;;;;;;47.40;18.23;100706.00;4985145;28;20034;-81
2023/08/16 06:19:01;;;;;;;5.93;3.00;;;;;;;47.92;17.66;100691.50;4981233;28;20121;-78
2023/08/16 06:21:27;;;;;;;4.80;2.75;;;;;;;48.52;17.27;100711.59;4994709;28;20045;-79
2023/08/16 06:23:56;;;;;;;5.72;3.28;;;;;;;49.00;16.79;100707.53;4979488;28;20039;-78
2023/08/16 06:26:22;;;;;;;3.20;2.90;;;;;;;49.26;16.10;100708.00;4993743;28;20042;-77
2023/08/16 06:28:48;;;;;;;5.45;3.67;;;;;;;49.68;15.20;100690.16;4978690;28;20291;-77
2023/08/16 06:31:15;;;;;;;3.95;3.28;;;;;;;50.14;14.77;100700.25;4994561;28;20461;-79
2023/08/16 06:33:41;;;;;;;4.82;3.60;;;;;;;50.68;14.26;100682.03;4961489;28;20049;-82
2023/08/16 06:36:07;;;;;;;7.82;3.35;;;;;;;50.67;14.43;100642.47;4962346;28;20038;-81
2023/08/16 06:38:33;;;;;;;8.30;3.75;;;;;;;51.27;13.96;100695.06;4984057;28;20528;-79
2023/08/16 06:40:59;;;;;;;5.03;3.33;;;;;;;51.62;13.06;100679.00;4978298;28;20242;-80
2023/08/16 06:43:24;;;;;;;4.70;3.00;;;;;;;51.82;13.27;100672.72;4995445;28;20077;-77
2023/08/16 06:45:50;;;;;;;6.38;3.60;;;;;;;52.12;12.95;100677.59;4978525;28;20046;-76
2023/08/16 06:48:16;;;;;;;5.15;3.20;;;;;;;52.48;12.29;100695.47;4966659;28;20065;-77
2023/08/16 06:50:43;;;;;;;5.38;3.15;;;;;;;52.88;12.27;100679.19;4995070;28;20503;-77
2023/08/16 06:53:08;;;;;;;5.90;3.10;;;;;;;53.30;11.82;100690.03;4978525;28;20034;-78
2023/08/16 06:55:36;;;;;;;5.20;2.80;;;;;;;53.54;11.41;100683.88;4978598;28;20073;-79
2023/08/16 06:58:05;;;;;;;3.78;2.53;;;;;;;53.49;11.37;100688.63;4965487;28;20041;-77
2023/08/16 07:00:31;;;;;;;6.13;2.97;;;;;;;53.26;11.03;100680.59;4978400;28;20053;-76
2023/08/16 07:02:58;;;;;;;3.70;2.60;;;;;;;53.62;10.61;100682.53;4976530;28;20042;-76
2023/08/16 07:05:26;;;;;;;2.67;2.17;;;;;;;53.25;11.11;100659.47;4977330;28;20058;-79
2023/08/16 07:07:53;;;;;;;2.50;2.30;;;;;;;51.66;11.20;100677.34;4976274;28;20057;-78
2023/08/16 07:10:19;;;;;;;4.28;2.50;;;;;;;50.32;11.58;100668.66;4975308;28;20065;-78
2023/08/16 07:12:46;;;;;;;5.97;2.35;;;;;;;51.12;11.89;100651.44;4952513;28;20122;-78
2023/08/16 07:15:12;;;;;;;5.13;2.45;;;;;;;52.00;11.08;100696.38;4963031;28;20058;-79
2023/08/16 07:17:39;;;;;;;7.95;3.88;;;;;;;52.64;10.85;100691.63;4978860;28;20034;-75
2023/08/16 07:20:08;;;;;;;4.35;3.45;;;;;;;53.50;9.99;100688.34;4961491;28;20165;-76
2023/08/16 07:22:37;;;;;;;3.25;2.67;;;;;;;54.32;10.20;100676.13;4994527;28;20041;-76
2023/08/16 07:25:04;;;;;;;;;;;;;;;54.76;9.66;100679.19;4975476;28;20055;-77
2023/08/16 07:27:30;;;;;;;4.30;2.30;;;;;;;54.99;10.14;100683.19;4976054;28;20005;-75
2023/08/16 07:29:56;;;;;;;3.08;2.30;;;;;;;54.77;9.09;100687.25;4976402;28;20049;-77
2023/08/16 07:32:22;;;;;;;8.52;2.70;;;;;;;55.31;9.01;100681.78;4977733;28;20039;-75
2023/08/16 07:34:48;;;;;;;6.95;2.55;;;;;;;54.94;8.94;100672.09;4977693;28;20536;-75
2023/08/16 07:37:14;;;;;;;2.80;2.60;;;;;;;55.27;8.90;100677.97;4980283;28;20113;-76
2023/08/16 07:39:40;;;;;;;4.47;2.80;;;;;;;55.46;8.41;100677.19;4975965;28;20038;-75
2023/08/16 07:42:07;;;;;;;5.43;2.60;;;;;;;54.29;9.10;100671.16;4979661;28;20047;-75
2023/08/16 07:44:34;;;;;;;4.25;2.70;;;;;;;54.46;9.48;100658.78;4993689;28;20038;-77
2023/08/16 07:47:02;;;;;;;4.63;2.42;;;;;;;55.01;9.19;100658.66;4988632;28;20034;-76
2023/08/16 07:49:29;;;;;;;;;;;;;;;55.73;9.01;100675.81;4962614;28;20039;-76
2023/08/16 07:51:58;;;;;;;4.78;2.67;;;;;;;55.93;8.92;100681.16;4991090;28;20437;-76
2023/08/16 07:54:25;;;;;;;3.72;2.80;;;;;;;56.77;8.41;100683.56;4961745;28;20050;-77
2023/08/16 07:56:52;;;;;;;3.00;2.70;;;;;;;56.77;8.05;100667.66;4977026;28;20133;-77
2023/08/16 07:59:18;;;;;;;3.22;3.03;;;;;;;56.70;8.05;100675.59;4960142;28;20468;-76
2023/08/16 08:01:44;;;;;;;4.82;3.42;;;;;;;56.39;7.54;100673.28;4972963;28;20062;-75
2023/08/16 08:04:10;;;;;;;3.35;3.00;;;;;;;56.75;8.02;100666.28;4973112;28;20469;-75
2023/08/16 08:06:36;;;;;;;2.90;2.70;;;;;;;57.12;7.39;100679.34;4980424;28;20092;-77
2023/08/16 08:09:03;;;;;;;4.72;3.28;;;;;;;57.41;8.06;100667.09;4978865;28;20043;-75
2023/08/16 08:11:30;;;;;;;3.42;3.03;;;;;;;57.93;7.25;100657.69;4975978;28;20390;-75
2023/08/16 08:13:59;;;;;;;3.97;2.90;;;;;;;57.88;7.71;100649.41;4976281;28;20078;-74
2023/08/16 08:16:25;;;;;;;3.67;3.30;;;;;;;58.16;7.03;100660.53;4974423;28;20047;-75
2023/08/16 08:18:51;;;;;;;3.47;3.20;;;;;;;57.60;7.23;100657.78;4976015;28;20092;-76
2023/08/16 08:21:17;;;;;;;4.65;3.50;;;;;;;57.85;7.61;100664.00;4961324;28;20042;-76
2023/08/16 08:23:42;;;;;;;7.00;2.78;;;;;;;57.99;7.09;100659.22;4980863;28;20089;-75
2023/08/16 08:26:10;;;;;;;4.43;3.20;;;;;;;57.52;6.99;100662.16;4980406;28;20081;-77
2023/08/16 08:28:37;;;;;;;4.88;2.90;;;;;;;55.82;8.36;100637.75;4981040;28;20376;-77
2023/08/16 08:31:03;;;;;;;3.53;2.67;;;;;;;54.70;8.63;100658.09;4977676;28;20038;-73
2023/08/16 08:33:29;;;;;;;3.22;2.88;;;;;;;54.96;8.63;100649.53;4974897;28;20034;-73
2023/08/16 08:35:56;;;;;;;2.97;2.30;;;;;;;55.95;8.25;100650.16;4981711;28;20489;-74
2023/08/16 08:38:23;;;;;;;3.78;2.75;;;;;;;56.96;7.50;100655.63;4976458;28;20039;-75
2023/08/16 08:40:59;;;;;;;4.03;2.85;;;;;;;57.69;7.20;100641.94;4968380;28;20081;-71
2023/08/16 08:43:36;;;;;;;4.22;2.95;;;;;;;57.82;6.90;100650.66;4975623;28;20058;-75
2023/08/16 08:46:04;;;;;;;2.90;2.70;;;;;;;57.47;6.60;100651.88;4979237;28;20031;-76
2023/08/16 08:48:31;;;;;;;3.90;2.88;;;;;;;56.98;7.09;100644.97;4991848;28;20777;-75
2023/08/16 08:50:58;;;;;;;3.15;2.88;;;;;;;56.89;7.11;100650.44;4964611;28;20113;-74
2023/08/16 08:53:26;;;;;;;4.13;2.95;;;;;;;56.38;6.89;100640.91;4963923;28;20049;-72
2023/08/16 08:55:54;;;;;;;4.20;2.97;;;;;;;56.20;6.90;100654.53;4977650;28;20035;-74
2023/08/16 08:58:21;;;;;;;4.35;2.88;;;;;;;55.80;7.14;100640.00;4977668;28;20138;-75
2023/08/16 09:00:49;;;;;;;3.28;3.00;;;;;;;56.01;6.75;100662.06;4979277;28;20089;-77
2023/08/16 09:03:21;;;;;;;4.18;3.50;;;;;;;54.38;8.06;100635.19;4993557;28;20047;-79
2023/08/16 09:05:50;;;;;;;4.88;2.80;;;;;;;54.84;8.25;100624.84;4976760;28;20082;-77
2023/08/16 09:08:16;;;;;;;3.97;2.90;;;;;;;54.86;7.95;100644.84;4980256;28;20386;-78
2023/08/16 09:10:43;;;;;;;3.10;2.70;;;;;;;54.75;7.85;100639.38;4979061;28;20036;-76
2023/08/16 09:13:12;;;;;;;3.35;2.65;;;;;;;54.27;8.49;100616.88;4978580;28;20042;-74
2023/08/16 09:15:38;;;;;;;2.85;2.63;;;;;;;54.39;8.21;100642.41;4976117;28;20038;-75
2023/08/16 09:18:12;;;;;;;5.75;2.63;;;;;;;54.68;8.14;100644.44;4961101;28;20065;-74
2023/08/16 09:20:39;;;;;;;3.60;2.40;;;;;;;54.80;8.32;100638.50;5008378;28;20042;-74
2023/08/16 09:23:06;;;;;;;4.68;2.78;;;;;;;55.51;8.09;100641.72;4992801;28;20061;-73
2023/08/16 09:25:32;;;;;;;4.88;2.55;;;;;;;56.11;7.90;100640.44;4977609;28;20507;-75
2023/08/16 09:27:58;;;;;;;3.90;2.70;;;;;;;56.32;7.33;100644.91;4962098;28;20075;-74
2023/08/16 09:30:28;;;;;;;2.85;2.60;;;;;;;55.01;7.58;100630.81;4960429;28;20092;-74
2023/08/16 09:32:56;;;;;;;3.35;2.38;;;;;;;55.23;7.63;100633.09;4976644;28;20204;-74
2023/08/16 09:35:32;;;;;;;5.72;2.70;;;;;;;55.67;7.58;100625.66;4993555;28;20043;-75
2023/08/16 09:38:00;;;;;;;8.10;3.13;;;;;;;55.06;8.03;100618.78;4977321;28;20414;-74
2023/08/16 09:40:26;;;;;;;9.68;2.80;;;;;;;54.84;7.50;100619.25;4959544;28;20046;-70
2023/08/16 09:42:58;;;;;;;3.40;2.60;;;;;;;53.92;7.69;100627.06;4962765;28;20034;-74
2023/08/16 09:45:36;;;;;;;3.08;2.72;;;;;;;53.77;7.85;100609.31;4960233;28;20446;-73
2023/08/16 09:48:04;;;;;;;2.88;2.67;;;;;;;53.97;8.26;100625.09;4976859;28;20105;-74
2023/08/16 09:50:35;;;;;;;4.23;3.00;;;;;;;53.68;8.23;100624.94;4976490;28;20098;-76
2023/08/16 09:53:05;;;;;;;5.20;2.72;;;;;;;54.54;7.95;100616.41;4978783;28;20051;-73
2023/08/16 09:55:35;;;;;;;3.97;3.67;;;;;;;55.13;8.23;100618.44;4978513;28;20122;-73
2023/08/16 09:58:02;;;;;;;3.75;3.40;;;;;;;55.43;8.26;100613.66;4962021;28;20603;-75
2023/08/16 10:00:30;;;;;;;4.57;4.18;;;;;;;55.57;7.77;100609.03;4959659;28;20061;-72
2023/08/16 10:02:57;;;;;;;7.68;4.30;;;;;;;55.01;7.69;100618.81;4976017;28;20048;-74
2023/08/16 10:05:25;;;;;;;6.45;4.25;;;;;;;54.97;7.21;100617.75;4981328;28;20059;-73
2023/08/16 10:07:53;;;;;;;4.00;3.53;;;;;;;55.14;7.38;100612.56;4959079;28;20034;-73
2023/08/16 10:10:18;;;;;;;3.30;2.95;;;;;;;54.92;7.87;100616.66;4992166;28;20042;-74
2023/08/16 10:12:48;;;;;;;4.72;3.03;;;;;;;54.81;7.49;100614.28;4978063;28;20101;-72
2023/08/16 10:15:14;;;;;;;2.80;2.50;;;;;;;53.63;8.11;100608.28;4980410;28;20390;-72
2023/08/16 10:17:42;;;;;;;2.78;2.58;;;;;;;53.15;8.68;100626.13;4979360;28;20105;-72
2023/08/16 10:20:14;;;;;;;3.40;2.70;;;;;;;52.75;8.81;100603.63;4981414;28;20042;-73
2023/08/16 10:22:43;;;;;;;3.63;3.15;;;;;;;52.57;8.55;100605.84;4964197;28;20038;-72
2023/08/16 10:25:13;;;;;;;4.85;4.15;;;;;;;51.99;9.26;100614.28;4968882;28;20074;-73
2023/08/16 10:27:43;;;;;;;5.65;4.13;;;;;;;51.87;9.27;100591.50;4994454;28;20102;-72
2023/08/16 10:30:19;;;;;;;6.93;4.28;;;;;;;51.83;9.58;100613.41;4976869;28;20038;-73
2023/08/16 10:32:47;;;;;;;3.63;3.33;;;;;;;51.64;9.58;100611.13;4978496;28;20047;-71
2023/08/16 10:35:14;;;;;;;8.85;8.07;;;;;;;51.48;9.08;100595.47;4965163;28;20563;-73
2023/08/16 10:37:41;;;;;;;4.80;2.60;;;;;;;51.64;9.07;100610.25;4980953;28;20034;-73
2023/08/16 10:40:27;;;;;;;46.97;9.43;;;;;;;49.81;9.92;100599.69;4941742;28;20034;-73
2023/08/16 10:42:55;;;;;;;12.38;6.13;;;;;;;47.31;11.76;100595.34;4976738;28;20038;-75
2023/08/16 10:45:29;;;;;;;5.22;3.67;;;;;;;45.27;12.79;100592.66;4979798;28;20087;-76
2023/08/16 10:47:55;;;;;;;2.40;2.08;;;;;;;43.40;13.88;100594.31;4980180;28;20037;-76
2023/08/16 10:50:33;;;;;;;6.13;2.10;;;;;;;41.89;14.80;100589.66;4967230;28;20042;-74
2023/08/16 10:53:01;;;;;;;1.90;1.67;;;;;;;40.58;15.52;100564.41;4990566;28;20045;-76
2023/08/16 10:55:27;;;;;;;4.47;2.20;;;;;;;39.38;16.40;100564.47;4977552;28;20450;-72
2023/08/16 10:57:54;;;;;;;4.10;2.60;;;;;;;39.06;17.28;100607.22;4958720;28;20053;-72
2023/08/16 11:00:32;;;;;;;2.58;1.70;;;;;;;37.98;18.19;100575.13;4990932;28;20038;-72
2023/08/16 11:03:01;;;;;;;3.95;2.00;;;;;;;37.44;18.02;100615.63;4974458;28;20057;-73
2023/08/16 11:05:33;;;;;;;2.42;1.70;;;;;;;36.96;19.10;100601.84;4973111;28;20059;-72
2023/08/16 11:08:09;;;;;;;3.20;1.80;;;;;;;36.63;19.63;100606.16;4973315;28;20034;-71
2023/08/16 11:10:37;;;;;;;4.22;2.40;;;;;;;36.03;20.77;100575.44;4973308;28;20042;-71
2023/08/16 11:13:12;;;;;;;5.30;2.40;;;;;;;35.85;21.37;100612.53;4989553;28;20092;-71
2023/08/16 11:15:40;;;;;;;4.97;2.20;;;;;;;35.39;21.72;100613.53;4974519;28;20046;-71
2023/08/16 11:18:06;;;;;;;3.65;2.35;;;;;;;35.01;22.03;100591.22;4972426;28;20121;-72
2023/08/16 11:20:32;;;;;;;3.13;2.60;;;;;;;34.76;22.77;100606.31;4973959;28;20476;-72
2023/08/16 11:22:59;;;;;;;2.78;1.88;;;;;;;34.35;22.70;100590.44;4974240;28;20061;-71
2023/08/16 11:25:33;;;;;;;8.18;3.45;;;;;;;34.05;23.30;100587.03;4975569;28;20050;-71
2023/08/16 11:28:01;;;;;;;5.85;4.70;;;;;;;33.66;23.99;100598.75;4966963;28;20044;-72
2023/08/16 11:30:26;;;;;;;5.32;2.45;;;;;;;33.30;24.11;100591.25;4965460;28;21618;-71
2023/08/16 11:32:52;;;;;;;3.85;2.83;;;;;;;32.95;24.83;100575.66;4977481;28;20038;-72